Belleville, West Virginia
Current Conditions -  °F | °C
As of 12:53 AM on Tuesday 21 Oct 2014 (Local Time) from KPKB Reporting Station
Broken Clouds Broken Clouds  
Wind Chill: 52°   Ceiling: 8500
Heat Index: 52°   Visibility: 10mi
Dew Point: 47°   Wind: 7mph
Humidity: 83%   Direction: 210°SSW
Pressure: 29.91"   Gusts: NA
Location:  39.12°N, 81.74°W
Report Text: KPKB 210453Z AUTO 21006KT 10SM SCT049 BKN085 BKN110 11/08 A2991 RMK AO2 RAB31E40 SLP128 P0000 T01110083 401500033
Loading
Personal Weather Stations






























Interactive Weather Map
Tropical Storm Tracking
New forecast layout! Learn more

10-Day Weather Forecast

Advertisements
Track Severe Weather on mobile